createdAt,value
2022-12-25T00:01:14.025Z,94.30
2022-12-25T00:03:40.924Z,94.30
2022-12-25T00:06:08.106Z,94.20
2022-12-25T00:08:36.371Z,94.10
2022-12-25T00:11:06.594Z,94.50
2022-12-25T00:13:33.500Z,94.50
2022-12-25T00:16:00.351Z,94.80
2022-12-25T00:18:27.144Z,94.90
2022-12-25T00:21:02.311Z,94.80
2022-12-25T00:23:30.095Z,94.70
2022-12-25T00:25:56.947Z,95.00
2022-12-25T00:28:24.363Z,95.00
2022-12-25T00:30:51.725Z,94.80
2022-12-25T00:33:19.040Z,94.80
2022-12-25T00:35:56.647Z,94.80
2022-12-25T00:38:23.438Z,94.90
2022-12-25T00:40:50.244Z,94.90
2022-12-25T00:43:17.167Z,94.90
2022-12-25T00:45:43.967Z,95.10
2022-12-25T00:48:10.795Z,94.90
2022-12-25T00:50:40.351Z,94.90
2022-12-25T00:53:07.102Z,94.80
2022-12-25T00:55:33.845Z,94.90
2022-12-25T00:58:00.630Z,94.90
2022-12-25T01:00:27.389Z,94.90
2022-12-25T01:02:54.270Z,94.90
2022-12-25T01:05:21.055Z,94.70
2022-12-25T01:07:47.791Z,94.50
2022-12-25T01:10:23.737Z,94.60
2022-12-25T01:12:51.708Z,94.30
2022-12-25T01:15:19.272Z,94.10
2022-12-25T01:17:46.153Z,94.50
2022-12-25T01:20:14.696Z,94.40
2022-12-25T01:22:41.618Z,94.10
2022-12-25T01:25:09.169Z,94.10
2022-12-25T01:27:36.357Z,94.00
2022-12-25T01:30:03.359Z,94.10
2022-12-25T01:32:31.555Z,94.20
2022-12-25T01:34:58.357Z,94.50
2022-12-25T01:37:25.455Z,94.30
2022-12-25T01:39:52.308Z,94.20
2022-12-25T01:42:23.689Z,94.00
2022-12-25T01:44:50.594Z,94.00
2022-12-25T01:47:18.319Z,94.50
2022-12-25T01:49:49.697Z,94.80
2022-12-25T01:52:24.122Z,94.50
2022-12-25T01:55:01.800Z,94.30
2022-12-25T01:57:32.284Z,94.30
2022-12-25T02:00:00.090Z,94.50
2022-12-25T02:02:28.375Z,94.60
2022-12-25T02:05:04.653Z,94.70
2022-12-25T02:07:34.593Z,94.90
2022-12-25T02:10:01.425Z,95.00
2022-12-25T02:12:32.537Z,94.90
2022-12-25T02:15:45.248Z,94.70
2022-12-25T02:18:33.602Z,94.80
2022-12-25T02:21:33.955Z,94.70
2022-12-25T02:24:23.007Z,94.50
2022-12-25T02:27:15.882Z,94.60
2022-12-25T02:29:45.357Z,94.50
2022-12-25T02:32:31.012Z,94.30
2022-12-25T02:35:27.809Z,94.40
2022-12-25T02:38:03.596Z,94.00
2022-12-25T02:40:49.928Z,94.20
2022-12-25T02:43:49.438Z,94.00
2022-12-25T02:46:39.755Z,93.80
2022-12-25T02:49:37.658Z,93.60
2022-12-25T02:52:28.574Z,93.80
2022-12-25T02:55:20.443Z,94.10
2022-12-25T02:58:10.115Z,94.30
2022-12-25T03:01:06.904Z,94.40
2022-12-25T03:03:57.133Z,94.10
2022-12-25T03:06:44.732Z,93.50
2022-12-25T03:09:44.413Z,93.80
2022-12-25T03:12:29.588Z,94.00
2022-12-25T03:15:15.696Z,94.30
2022-12-25T03:17:42.754Z,94.20
2022-12-25T03:20:28.848Z,94.10
2022-12-25T03:23:15.356Z,93.50
2022-12-25T03:26:00.938Z,93.60
2022-12-25T03:28:27.675Z,93.90
2022-12-25T03:31:17.093Z,94.10
2022-12-25T03:34:06.994Z,94.00
2022-12-25T03:36:55.202Z,94.70
2022-12-25T03:40:24.005Z,94.50
2022-12-25T03:43:37.498Z,94.40
2022-12-25T03:46:27.141Z,94.70
2022-12-25T03:49:18.867Z,95.00
2022-12-25T03:52:05.996Z,95.30
2022-12-25T03:54:53.861Z,94.60
2022-12-25T03:57:38.989Z,94.20
2022-12-25T04:00:25.244Z,94.50
2022-12-25T04:03:11.367Z,94.50
2022-12-25T04:05:56.571Z,94.80
2022-12-25T04:08:42.079Z,95.40
2022-12-25T04:11:27.271Z,95.40
2022-12-25T04:14:12.865Z,95.30
2022-12-25T04:16:58.046Z,95.30
2022-12-25T04:19:44.476Z,95.20
2022-12-25T04:22:29.855Z,95.20
2022-12-25T04:25:15.151Z,95.10
2022-12-25T04:28:00.552Z,95.20
2022-12-25T04:30:45.772Z,95.10
2022-12-25T04:33:31.548Z,95.30
2022-12-25T04:36:11.666Z,95.10
2022-12-25T04:38:40.690Z,94.60
2022-12-25T04:41:11.982Z,94.50
2022-12-25T04:43:38.747Z,94.00
2022-12-25T04:46:06.239Z,94.50
2022-12-25T04:48:35.309Z,94.80
2022-12-25T04:51:17.873Z,95.20
2022-12-25T04:53:45.230Z,95.40
2022-12-25T04:56:12.499Z,95.40
2022-12-25T04:58:39.337Z,95.50
2022-12-25T05:01:06.218Z,94.10
2022-12-25T05:03:33.578Z,94.30
2022-12-25T05:06:01.342Z,94.90
2022-12-25T05:08:30.114Z,94.20
2022-12-25T05:10:56.896Z,94.70
2022-12-25T05:13:23.653Z,94.80
2022-12-25T05:15:51.357Z,94.80
2022-12-25T05:18:18.196Z,94.50
2022-12-25T05:20:54.795Z,94.70
2022-12-25T05:23:22.110Z,94.70
2022-12-25T05:25:49.060Z,95.00
2022-12-25T05:28:15.819Z,94.90
2022-12-25T05:30:42.604Z,94.30
2022-12-25T05:33:09.421Z,94.80
2022-12-25T05:35:38.159Z,94.90
2022-12-25T05:38:06.546Z,94.80
2022-12-25T05:40:34.311Z,94.70
2022-12-25T05:43:01.061Z,94.80
2022-12-25T05:45:27.798Z,94.50
2022-12-25T05:47:54.531Z,94.70
2022-12-25T05:50:21.348Z,94.80
2022-12-25T05:52:48.102Z,94.60
2022-12-25T05:55:14.979Z,94.30
2022-12-25T05:57:41.713Z,94.40
2022-12-25T06:00:09.033Z,94.70
2022-12-25T06:02:37.211Z,94.30
2022-12-25T06:05:04.943Z,94.30
2022-12-25T06:07:31.888Z,94.50
2022-12-25T06:09:58.745Z,94.60
2022-12-25T06:12:25.527Z,94.40
2022-12-25T06:14:52.272Z,94.40
2022-12-25T06:17:18.994Z,94.50
2022-12-25T06:19:45.764Z,94.60
2022-12-25T06:22:12.496Z,94.40
2022-12-25T06:24:39.477Z,94.20
2022-12-25T06:27:06.218Z,94.40
2022-12-25T06:29:32.959Z,94.20
2022-12-25T06:31:59.781Z,94.10
2022-12-25T06:34:27.057Z,94.10
2022-12-25T06:36:53.800Z,94.30
2022-12-25T06:39:25.401Z,94.20
2022-12-25T06:41:52.182Z,94.30
2022-12-25T06:44:18.903Z,94.90
2022-12-25T06:46:45.601Z,94.90
2022-12-25T06:49:12.319Z,95.10
2022-12-25T06:51:39.110Z,95.10
2022-12-25T06:54:06.397Z,95.40
2022-12-25T06:56:34.031Z,95.50
2022-12-25T06:59:06.479Z,95.10
2022-12-25T07:01:55.859Z,95.10
2022-12-25T07:04:32.083Z,94.70
2022-12-25T07:07:04.455Z,94.80
2022-12-25T07:09:35.587Z,95.20
2022-12-25T07:12:07.768Z,95.20
2022-12-25T07:14:34.652Z,94.90
2022-12-25T07:17:01.427Z,94.60
2022-12-25T07:19:28.260Z,94.90
2022-12-25T07:21:54.972Z,95.10
2022-12-25T07:24:22.982Z,95.30
2022-12-25T07:26:50.836Z,95.20
2022-12-25T07:29:19.506Z,95.30
2022-12-25T07:31:46.855Z,95.20
2022-12-25T07:34:13.575Z,95.10
2022-12-25T07:36:40.314Z,95.20
2022-12-25T07:39:07.007Z,95.40
2022-12-25T07:41:33.698Z,95.50
2022-12-25T07:44:00.476Z,95.50
2022-12-25T07:46:28.263Z,95.50
2022-12-25T07:48:55.034Z,95.50
2022-12-25T07:51:21.900Z,95.20
2022-12-25T07:53:48.622Z,95.20
2022-12-25T07:56:17.779Z,95.20
2022-12-25T07:58:45.365Z,95.20
2022-12-25T08:01:17.616Z,95.20
2022-12-25T08:03:52.371Z,95.20
2022-12-25T08:06:20.292Z,95.30
2022-12-25T08:08:47.091Z,95.30
2022-12-25T08:11:14.026Z,95.10
2022-12-25T08:13:41.018Z,95.10
2022-12-25T08:16:09.926Z,95.30
2022-12-25T08:18:38.354Z,95.30
2022-12-25T08:21:15.178Z,95.40
2022-12-25T08:23:43.925Z,95.40
2022-12-25T08:26:14.025Z,95.50
2022-12-25T08:28:41.139Z,95.50
2022-12-25T08:31:20.583Z,95.30
2022-12-25T08:33:48.903Z,95.50
2022-12-25T08:36:17.194Z,95.40
2022-12-25T08:38:44.318Z,95.30
2022-12-25T08:41:12.199Z,95.30
2022-12-25T08:43:39.422Z,95.30
2022-12-25T08:46:06.940Z,95.40
2022-12-25T08:48:33.736Z,95.40
2022-12-25T08:51:01.021Z,95.50
2022-12-25T08:53:27.798Z,95.30
2022-12-25T08:56:04.335Z,95.30
2022-12-25T08:58:31.355Z,95.40
2022-12-25T09:00:58.591Z,95.50
2022-12-25T09:03:25.807Z,95.30
2022-12-25T09:05:54.138Z,95.20
2022-12-25T09:08:21.843Z,95.00
2022-12-25T09:10:49.305Z,94.90
2022-12-25T09:13:16.135Z,94.80
2022-12-25T09:15:42.968Z,94.40
2022-12-25T09:18:09.850Z,94.00
2022-12-25T09:20:36.604Z,93.90
2022-12-25T09:23:06.071Z,93.80
2022-12-25T09:25:35.301Z,93.60
2022-12-25T09:28:02.039Z,93.40
2022-12-25T09:30:29.155Z,93.00
2022-12-25T09:32:56.187Z,93.00
2022-12-25T09:35:22.909Z,93.00
2022-12-25T09:37:49.655Z,93.00
2022-12-25T09:40:21.112Z,93.00
2022-12-25T09:42:48.911Z,93.10
2022-12-25T09:45:29.951Z,92.90
2022-12-25T09:47:57.324Z,92.60
2022-12-25T09:50:40.459Z,92.40
2022-12-25T09:53:18.915Z,92.60
2022-12-25T09:55:56.687Z,92.30
2022-12-25T09:58:28.009Z,92.40
2022-12-25T10:01:12.469Z,91.90
2022-12-25T10:03:57.823Z,91.80
2022-12-25T10:06:49.481Z,91.90
2022-12-25T10:09:25.524Z,90.80
2022-12-25T10:12:29.408Z,89.80
2022-12-25T10:15:23.316Z,88.80
2022-12-25T10:18:17.944Z,86.00
2022-12-25T10:20:53.080Z,83.90
2022-12-25T10:23:30.620Z,82.90
2022-12-25T10:25:57.361Z,81.90
2022-12-25T10:28:34.847Z,82.70
2022-12-25T10:31:16.034Z,82.00
2022-12-25T10:33:42.792Z,81.80
2022-12-25T10:36:09.731Z,82.40
2022-12-25T10:38:39.475Z,82.10
2022-12-25T10:41:13.618Z,81.40
2022-12-25T10:43:45.300Z,81.10
2022-12-25T10:46:14.899Z,81.20
2022-12-25T10:48:46.524Z,80.30
2022-12-25T10:51:13.636Z,80.70
2022-12-25T10:53:43.595Z,79.90
2022-12-25T10:56:19.565Z,80.70
2022-12-25T10:58:46.417Z,79.90
2022-12-25T11:01:13.754Z,79.70
2022-12-25T11:03:44.789Z,79.30
2022-12-25T11:06:26.559Z,76.70
2022-12-25T11:08:59.894Z,77.20
2022-12-25T11:11:29.490Z,75.30
2022-12-25T11:14:01.620Z,74.70
2022-12-25T11:16:39.956Z,75.00
2022-12-25T11:19:26.978Z,75.20
2022-12-25T11:21:56.657Z,76.10
2022-12-25T11:24:27.968Z,75.20
2022-12-25T11:27:01.060Z,73.70
2022-12-25T11:29:39.994Z,73.40
2022-12-25T11:32:16.320Z,72.90
2022-12-25T11:34:46.810Z,72.00
2022-12-25T11:37:20.176Z,71.00
2022-12-25T11:39:47.251Z,67.90
2022-12-25T11:42:28.679Z,67.10
2022-12-25T11:45:17.130Z,68.40
2022-12-25T11:48:05.120Z,68.40
2022-12-25T11:50:36.456Z,66.10
2022-12-25T11:53:07.265Z,67.10
2022-12-25T11:55:47.117Z,67.40
2022-12-25T11:58:26.763Z,67.00
2022-12-25T12:00:57.209Z,67.10
2022-12-25T12:03:37.377Z,69.10
2022-12-25T12:06:33.287Z,69.20
2022-12-25T12:09:34.473Z,69.10
2022-12-25T12:12:25.354Z,68.20
2022-12-25T12:15:00.579Z,68.60
2022-12-25T12:17:27.343Z,66.00
2022-12-25T12:19:54.139Z,65.10
2022-12-25T12:22:27.212Z,64.70
2022-12-25T12:25:05.168Z,65.20
2022-12-25T12:27:40.530Z,65.80
2022-12-25T12:30:24.424Z,66.90
2022-12-25T12:32:59.175Z,68.70
2022-12-25T12:35:30.085Z,69.60
2022-12-25T12:38:03.832Z,68.90
2022-12-25T12:40:33.653Z,67.40
2022-12-25T12:43:01.303Z,68.20
2022-12-25T12:45:36.036Z,66.80
2022-12-25T12:48:14.762Z,66.90
2022-12-25T12:50:42.351Z,68.80
2022-12-25T12:53:24.388Z,69.30
2022-12-25T12:55:52.662Z,68.50
2022-12-25T12:58:34.379Z,67.00
2022-12-25T13:01:34.275Z,65.70
2022-12-25T13:04:26.329Z,65.90
2022-12-25T13:07:05.251Z,68.00
2022-12-25T13:10:10.642Z,69.50
2022-12-25T13:12:38.162Z,69.80
2022-12-25T13:15:12.743Z,70.50
2022-12-25T13:17:44.531Z,68.00
2022-12-25T13:20:28.772Z,67.80
2022-12-25T13:22:55.612Z,65.90
2022-12-25T13:25:23.891Z,63.40
2022-12-25T13:27:57.611Z,62.10
2022-12-25T13:30:25.635Z,60.60
2022-12-25T13:32:54.630Z,60.10
2022-12-25T13:35:23.309Z,61.00
2022-12-25T13:37:50.915Z,61.10
2022-12-25T13:40:24.566Z,60.70
2022-12-25T13:42:56.536Z,61.80
2022-12-25T13:45:26.349Z,63.50
2022-12-25T13:47:55.705Z,64.70
2022-12-25T13:50:28.597Z,66.90
2022-12-25T13:52:57.383Z,66.70
2022-12-25T13:55:26.637Z,65.90
2022-12-25T13:58:05.709Z,66.70
2022-12-25T14:00:35.128Z,66.30
2022-12-25T14:03:03.256Z,67.30
2022-12-25T14:05:37.961Z,66.80
2022-12-25T14:08:18.911Z,64.10
2022-12-25T14:10:49.986Z,62.90
2022-12-25T14:13:19.356Z,63.20
2022-12-25T14:15:54.071Z,63.90
2022-12-25T14:18:23.847Z,65.30
2022-12-25T14:21:25.298Z,64.90
2022-12-25T14:23:52.343Z,64.30
2022-12-25T14:26:22.092Z,66.70
2022-12-25T14:28:50.937Z,68.60
2022-12-25T14:31:18.770Z,69.10
2022-12-25T14:33:46.200Z,66.90
2022-12-25T14:36:13.975Z,65.10
2022-12-25T14:38:42.507Z,64.50
2022-12-25T14:41:33.289Z,65.40
2022-12-25T14:44:38.593Z,66.90
2022-12-25T14:47:11.535Z,66.60
2022-12-25T14:49:38.539Z,67.10
2022-12-25T14:52:22.840Z,68.60
2022-12-25T14:55:17.544Z,69.30
2022-12-25T14:57:49.027Z,70.50
2022-12-25T15:00:21.840Z,71.60
2022-12-25T15:02:51.427Z,72.50
2022-12-25T15:05:27.284Z,74.20
2022-12-25T15:08:10.153Z,75.40
2022-12-25T15:13:26.372Z,77.40
2022-12-25T15:16:29.819Z,78.20
2022-12-25T15:18:57.118Z,78.90
2022-12-25T15:21:28.729Z,79.30
2022-12-25T15:23:57.455Z,79.90
2022-12-25T15:26:25.822Z,80.00
2022-12-25T15:28:52.958Z,80.00
2022-12-25T15:31:25.819Z,80.70
2022-12-25T15:33:54.649Z,81.40
2022-12-25T15:36:22.713Z,81.80
2022-12-25T15:38:49.935Z,81.80
2022-12-25T15:41:38.107Z,82.00
2022-12-25T15:44:06.573Z,82.10
2022-12-25T15:46:34.182Z,82.70
2022-12-25T15:49:01.250Z,82.80
2022-12-25T15:51:28.093Z,82.60
2022-12-25T15:53:55.011Z,83.20
2022-12-25T15:56:23.294Z,83.60
2022-12-25T15:58:50.089Z,83.90
2022-12-25T16:01:18.963Z,84.30
2022-12-25T16:03:46.533Z,84.50
2022-12-25T16:06:16.215Z,84.90
2022-12-25T16:08:43.136Z,85.20
2022-12-25T16:11:10.617Z,85.20
2022-12-25T16:13:37.755Z,85.50
2022-12-25T16:16:05.063Z,85.40
2022-12-25T16:18:31.931Z,85.80
2022-12-25T16:20:59.245Z,86.60
2022-12-25T16:23:26.312Z,86.90
2022-12-25T16:25:53.056Z,87.00
2022-12-25T16:28:19.908Z,87.10
2022-12-25T16:30:46.759Z,87.00
2022-12-25T16:33:13.589Z,87.00
2022-12-25T16:35:40.374Z,86.70
2022-12-25T16:38:07.546Z,86.90
2022-12-25T16:40:34.368Z,87.10
2022-12-25T16:43:01.156Z,86.80
2022-12-25T16:45:28.230Z,87.00
2022-12-25T16:47:57.015Z,86.20
2022-12-25T16:50:23.852Z,86.70
2022-12-25T16:52:50.660Z,87.00
2022-12-25T16:55:18.591Z,87.30
2022-12-25T16:57:50.901Z,87.80
2022-12-25T17:00:18.617Z,87.50
2022-12-25T17:02:45.729Z,87.40
2022-12-25T17:05:12.790Z,88.10
2022-12-25T17:07:39.615Z,88.20
2022-12-25T17:10:07.891Z,89.00
2022-12-25T17:12:34.675Z,89.10
2022-12-25T17:15:01.431Z,89.00
2022-12-25T17:17:28.205Z,89.70
2022-12-25T17:19:54.975Z,90.20
2022-12-25T17:22:25.418Z,90.10
2022-12-25T17:24:52.225Z,90.40
2022-12-25T17:27:18.993Z,90.80
2022-12-25T17:29:48.255Z,90.70
2022-12-25T17:32:15.116Z,90.50
2022-12-25T17:34:41.870Z,90.90
2022-12-25T17:37:08.768Z,91.00
2022-12-25T17:39:35.533Z,90.90
2022-12-25T17:42:02.398Z,91.10
2022-12-25T17:44:29.336Z,91.50
2022-12-25T17:46:56.106Z,91.10
2022-12-25T17:49:23.359Z,91.20
2022-12-25T17:51:50.467Z,91.30
2022-12-25T17:54:17.174Z,91.30
2022-12-25T17:56:43.904Z,91.30
2022-12-25T17:59:18.079Z,91.40
2022-12-25T18:01:46.823Z,91.40
2022-12-25T18:04:14.231Z,91.40
2022-12-25T18:06:41.365Z,91.40
2022-12-25T18:09:09.677Z,91.50
2022-12-25T18:11:39.673Z,91.10
2022-12-25T18:14:08.352Z,91.50
2022-12-25T18:16:37.856Z,91.40
2022-12-25T18:19:05.308Z,91.60
2022-12-25T18:21:32.396Z,91.50
2022-12-25T18:23:59.464Z,90.90
2022-12-25T18:26:28.608Z,91.00
2022-12-25T18:28:55.820Z,91.00
2022-12-25T18:31:25.116Z,91.00
2022-12-25T18:33:52.367Z,91.20
2022-12-25T18:36:22.179Z,90.60
2022-12-25T18:38:50.903Z,91.20
2022-12-25T18:41:18.601Z,91.10
2022-12-25T18:43:52.609Z,91.10
2022-12-25T18:46:27.335Z,91.40
2022-12-25T18:48:55.760Z,90.80
2022-12-25T18:51:22.554Z,90.60
2022-12-25T18:53:49.493Z,90.80
2022-12-25T18:56:17.701Z,90.90
2022-12-25T18:58:46.288Z,91.10
2022-12-25T19:01:23.575Z,91.70
2022-12-25T19:03:51.693Z,92.40
2022-12-25T19:06:18.437Z,92.10
2022-12-25T19:08:45.425Z,92.20
2022-12-25T19:11:12.307Z,91.60
2022-12-25T19:13:39.112Z,92.00
2022-12-25T19:16:06.116Z,91.70
2022-12-25T19:18:32.931Z,91.30
2022-12-25T19:21:05.023Z,90.70
2022-12-25T19:23:31.887Z,91.00
2022-12-25T19:25:58.699Z,90.40
2022-12-25T19:28:25.506Z,90.40
2022-12-25T19:30:53.987Z,90.20
2022-12-25T19:33:21.838Z,91.10
2022-12-25T19:35:48.968Z,91.20
2022-12-25T19:38:16.284Z,90.90
2022-12-25T19:41:00.057Z,90.10
2022-12-25T19:43:33.421Z,89.10
2022-12-25T19:46:01.642Z,90.40
2022-12-25T19:48:29.427Z,90.50
2022-12-25T19:50:56.207Z,90.10
2022-12-25T19:53:23.742Z,90.70
2022-12-25T19:55:52.567Z,91.00
2022-12-25T19:58:23.446Z,90.60
2022-12-25T20:01:05.956Z,90.60
2022-12-25T20:03:45.350Z,89.40
2022-12-25T20:06:24.634Z,89.80
2022-12-25T20:08:57.471Z,90.20
2022-12-25T20:11:26.629Z,91.00
2022-12-25T20:13:54.400Z,89.80
2022-12-25T20:16:21.380Z,89.30
2022-12-25T20:18:48.283Z,89.30
2022-12-25T20:21:18.186Z,89.50
2022-12-25T20:23:46.879Z,89.90
2022-12-25T20:26:14.629Z,90.40
2022-12-25T20:28:42.316Z,90.30
2022-12-25T20:31:16.938Z,90.10
2022-12-25T20:33:44.567Z,89.00
2022-12-25T20:36:12.713Z,89.40
2022-12-25T20:38:39.879Z,88.60
2022-12-25T20:41:29.491Z,89.20
2022-12-25T20:43:56.989Z,88.90
2022-12-25T20:46:25.102Z,89.30
2022-12-25T20:48:52.799Z,89.70
2022-12-25T20:51:22.433Z,89.60
2022-12-25T20:53:49.792Z,89.70
2022-12-25T20:56:18.516Z,89.80
2022-12-25T20:58:45.592Z,89.60
2022-12-25T21:01:17.567Z,89.70
2022-12-25T21:03:44.752Z,89.90
2022-12-25T21:06:12.438Z,90.00
2022-12-25T21:08:40.998Z,89.30
2022-12-25T21:11:08.953Z,89.20
2022-12-25T21:13:38.531Z,89.40
2022-12-25T21:16:07.440Z,88.80
2022-12-25T21:18:34.598Z,89.40
2022-12-25T21:21:05.453Z,89.80
2022-12-25T21:23:33.181Z,88.80
2022-12-25T21:26:00.045Z,88.80
2022-12-25T21:28:27.117Z,89.60
2022-12-25T21:30:53.920Z,89.80
2022-12-25T21:33:39.302Z,89.30
2022-12-25T21:36:11.211Z,89.40
2022-12-25T21:38:39.136Z,89.70
2022-12-25T21:41:08.725Z,89.90
2022-12-25T21:43:37.523Z,89.80
2022-12-25T21:46:09.794Z,89.30
2022-12-25T21:48:37.432Z,89.00
2022-12-25T21:51:23.731Z,89.30
2022-12-25T21:53:50.705Z,89.00
2022-12-25T21:56:18.181Z,88.70
2022-12-25T21:58:44.970Z,89.10
2022-12-25T22:01:11.936Z,89.30
2022-12-25T22:03:38.795Z,89.00
2022-12-25T22:06:24.197Z,88.90
2022-12-25T22:08:50.978Z,89.10
2022-12-25T22:11:36.303Z,88.50
2022-12-25T22:14:51.936Z,89.50
2022-12-25T22:17:27.820Z,89.10
2022-12-25T22:19:55.320Z,88.80
2022-12-25T22:22:25.251Z,88.60
2022-12-25T22:24:54.664Z,88.70
2022-12-25T22:27:21.889Z,88.50
2022-12-25T22:29:48.879Z,88.70
2022-12-25T22:32:16.418Z,88.60
2022-12-25T22:34:43.651Z,89.50
2022-12-25T22:37:14.924Z,89.50
2022-12-25T22:39:41.712Z,89.10
2022-12-25T22:42:08.528Z,89.00
2022-12-25T22:44:35.342Z,89.60
2022-12-25T22:47:02.109Z,89.90
2022-12-25T22:49:29.172Z,90.50
2022-12-25T22:51:56.372Z,90.30
2022-12-25T22:54:24.491Z,90.00
2022-12-25T22:56:52.604Z,90.10
2022-12-25T22:59:22.228Z,90.20
2022-12-25T23:01:49.822Z,90.50
2022-12-25T23:04:17.030Z,90.70
2022-12-25T23:06:44.205Z,90.40
2022-12-25T23:09:18.895Z,90.40
2022-12-25T23:11:49.052Z,91.10
2022-12-25T23:14:34.559Z,90.70
2022-12-25T23:17:01.341Z,90.70
2022-12-25T23:19:46.677Z,90.50
2022-12-25T23:22:32.075Z,90.60
2022-12-25T23:25:17.736Z,91.10
2022-12-25T23:27:45.644Z,90.80
2022-12-25T23:30:16.169Z,90.80
2022-12-25T23:32:43.858Z,90.80
2022-12-25T23:35:11.829Z,91.40
2022-12-25T23:37:38.632Z,91.80
2022-12-25T23:40:06.064Z,91.60
2022-12-25T23:42:32.851Z,91.10
2022-12-25T23:44:59.586Z,91.20
2022-12-25T23:47:26.412Z,91.20
2022-12-25T23:49:53.186Z,91.10
2022-12-25T23:52:19.955Z,91.20
2022-12-25T23:54:46.746Z,91.00
2022-12-25T23:57:17.269Z,91.10
2022-12-25T23:59:44.162Z,91.00
